Time;durP1;ratioP1;P1;durP2;ratioP2;P2;SDS_P1;SDS_P2;PMS_P1;PMS_P2;Temp;Humidity;BMP_temperature;BMP_pressure;BME280_temperature;BME280_humidity;BME280_pressure;Samples;Min_cycle;Max_cycle;Signal;HPM_P1;HPM_P2
2022/04/05 00:02:21;;;;;;;11.05;2.97;;;7.00;99.90;;;;;;5025526;28;20041;-88
2022/04/05 00:04:46;;;;;;;10.40;3.13;;;7.00;99.90;;;;;;5009958;28;20142;-86
2022/04/05 00:07:12;;;;;;;10.05;2.65;;;6.90;99.90;;;;;;5008932;28;20050;-87
2022/04/05 00:09:37;;;;;;;7.22;2.75;;;6.90;99.90;;;;;;5010988;28;20050;-86
2022/04/05 00:12:03;;;;;;;10.85;3.10;;;6.90;99.90;;;;;;5009268;28;20089;-84
2022/04/05 00:14:29;;;;;;;8.40;2.42;;;6.90;99.90;;;;;;4992371;28;20054;-86
2022/04/05 00:16:55;;;;;;;9.85;2.97;;;7.80;99.90;;;;;;5008924;28;20054;-87
2022/04/05 00:19:22;;;;;;;12.38;3.80;;;6.90;99.90;;;;;;5008426;28;20125;-86
2022/04/05 00:21:48;;;;;;;9.52;2.80;;;6.90;99.90;;;;;;5009574;28;20069;-86
2022/04/05 00:24:14;;;;;;;8.70;2.40;;;6.90;99.90;;;;;;4992881;28;20172;-86
2022/04/05 00:26:40;;;;;;;7.72;2.50;;;6.90;99.90;;;;;;5026448;28;20374;-87
2022/04/05 00:29:06;;;;;;;8.32;2.40;;;6.90;99.90;;;;;;5009186;28;20138;-83
2022/04/05 00:31:31;;;;;;;8.10;2.20;;;6.80;99.90;;;;;;4992873;28;20064;-86
2022/04/05 00:33:57;;;;;;;10.80;2.70;;;6.90;99.90;;;;;;5008845;28;20148;-87
2022/04/05 00:36:23;;;;;;;11.43;2.50;;;7.00;99.90;;;;;;5007939;28;20181;-85
2022/04/05 00:38:48;;;;;;;7.38;2.30;;;7.70;99.90;;;;;;5008942;28;20057;-86
2022/04/05 00:41:14;;;;;;;11.63;2.40;;;6.80;99.90;;;;;;5007192;28;20413;-86
2022/04/05 00:43:40;;;;;;;7.97;2.60;;;6.80;99.90;;;;;;4995414;28;20042;-88
2022/04/05 00:46:06;;;;;;;11.23;2.53;;;6.80;99.90;;;;;;5029110;28;20493;-86
2022/04/05 00:48:51;;;;;;;8.70;2.40;;;6.80;99.90;;;;;;4996140;28;20054;-87
2022/04/05 00:51:18;;;;;;;9.88;2.30;;;6.80;99.90;;;;;;5028478;28;20057;-85
2022/04/05 00:53:45;;;;;;;11.45;2.33;;;6.90;99.90;;;;;;4996646;28;20057;-86
2022/04/05 00:56:12;;;;;;;11.20;2.53;;;6.80;99.90;;;;;;5013389;28;20042;-85
2022/04/05 00:58:37;;;;;;;10.23;2.30;;;6.80;99.90;;;;;;4996358;28;20049;-86
2022/04/05 01:01:03;;;;;;;8.70;2.20;;;6.70;99.90;;;;;;4989657;28;20072;-86
2022/04/05 01:03:28;;;;;;;10.75;2.72;;;6.80;99.90;;;;;;5012414;28;20120;-86
2022/04/05 01:05:55;;;;;;;8.18;2.05;;;6.70;99.90;;;;;;5012389;28;20520;-86
2022/04/05 01:08:20;;;;;;;16.48;2.70;;;6.80;99.90;;;;;;4996884;28;20057;-86
2022/04/05 01:10:46;;;;;;;6.43;1.92;;;6.70;99.90;;;;;;4997091;28;20501;-86
2022/04/05 01:13:12;;;;;;;10.18;2.50;;;6.70;99.90;;;;;;5018785;28;20030;-82
2022/04/05 01:15:37;;;;;;;8.75;2.60;;;6.70;99.90;;;;;;5037199;28;20130;-86
2022/04/05 01:18:03;;;;;;;7.78;2.08;;;7.00;99.90;;;;;;5020464;28;20045;-83
2022/04/05 01:20:29;;;;;;;6.60;1.85;;;6.70;99.90;;;;;;5010501;28;20077;-86
2022/04/05 01:22:54;;;;;;;7.95;1.98;;;6.70;99.90;;;;;;5018156;28;20073;-85
2022/04/05 01:25:20;;;;;;;8.85;2.10;;;6.70;99.90;;;;;;4995826;28;20045;-87
2022/04/05 01:27:46;;;;;;;9.65;2.00;;;6.70;99.90;;;;;;4996432;28;20060;-87
2022/04/05 01:30:12;;;;;;;8.45;1.92;;;6.70;99.90;;;;;;5012274;28;20116;-84
2022/04/05 01:32:38;;;;;;;15.75;2.40;;;6.70;99.90;;;;;;5012379;28;20053;-87
2022/04/05 01:35:05;;;;;;;12.98;2.10;;;6.70;99.90;;;;;;4996329;28;20064;-87
2022/04/05 01:37:32;;;;;;;10.82;1.95;;;6.70;99.90;;;;;;5011478;28;20124;-87
2022/04/05 01:39:57;;;;;;;9.57;2.13;;;6.70;99.90;;;;;;4996369;28;20060;-87
2022/04/05 01:42:23;;;;;;;9.60;1.90;;;6.70;99.90;;;;;;4995992;28;20045;-85
2022/04/05 01:44:49;;;;;;;11.57;2.33;;;6.70;99.90;;;;;;5012052;28;20160;-86
2022/04/05 01:47:16;;;;;;;9.35;2.45;;;6.70;99.90;;;;;;4995569;28;20046;-83
2022/04/05 01:49:43;;;;;;;8.02;2.08;;;6.80;99.90;;;;;;5011780;28;20050;-86
2022/04/05 01:52:10;;;;;;;8.88;2.45;;;6.70;99.90;;;;;;4995527;28;20053;-85
2022/04/05 01:54:36;;;;;;;14.85;2.53;;;6.60;99.90;;;;;;4993938;28;20551;-87
2022/04/05 01:57:02;;;;;;;9.32;2.25;;;7.00;99.90;;;;;;4994882;28;20058;-86
2022/04/05 01:59:30;;;;;;;12.85;2.50;;;6.60;99.90;;;;;;4994815;28;20050;-86
2022/04/05 02:01:55;;;;;;;10.77;2.40;;;6.60;99.90;;;;;;4995350;28;20571;-86
2022/04/05 02:04:21;;;;;;;11.50;2.55;;;6.60;99.90;;;;;;4978697;28;20057;-87
2022/04/05 02:06:47;;;;;;;8.73;2.20;;;6.60;99.90;;;;;;5011629;28;20072;-85
2022/04/05 02:09:15;;;;;;;17.73;3.42;;;6.60;99.90;;;;;;4978839;28;20062;-87
2022/04/05 02:11:43;;;;;;;10.35;2.35;;;6.60;99.90;;;;;;4994777;28;20053;-86
2022/04/05 02:14:09;;;;;;;9.60;2.42;;;6.60;99.90;;;;;;4994827;28;20064;-86
2022/04/05 02:16:35;;;;;;;15.68;3.42;;;6.60;99.90;;;;;;4994456;28;20120;-86
2022/04/05 02:19:00;;;;;;;9.50;2.42;;;6.60;99.90;;;;;;4978371;28;20565;-86
2022/04/05 02:21:26;;;;;;;8.57;2.95;;;7.40;99.90;;;;;;5011522;28;20053;-86
2022/04/05 02:23:52;;;;;;;14.00;2.58;;;6.60;99.90;;;;;;4994545;28;20530;-86
2022/04/05 02:26:17;;;;;;;11.75;2.72;;;6.60;99.90;;;;;;5010400;28;20065;-83
2022/04/05 02:28:43;;;;;;;12.85;3.00;;;6.50;99.90;;;;;;5010568;28;20406;-86
2022/04/05 02:31:09;;;;;;;12.45;2.55;;;6.60;99.90;;;;;;5011458;28;20050;-87
2022/04/05 02:33:35;;;;;;;11.13;2.60;;;6.60;99.90;;;;;;4978547;28;20042;-87
2022/04/05 02:36:02;;;;;;;10.73;3.00;;;6.60;99.90;;;;;;4978895;28;20103;-86
2022/04/05 02:38:28;;;;;;;13.10;4.03;;;6.60;99.90;;;;;;5010866;28;20058;-87
2022/04/05 02:40:53;;;;;;;10.65;2.60;;;6.60;99.90;;;;;;5011885;28;20481;-86
2022/04/05 02:43:19;;;;;;;11.95;3.85;;;6.60;99.90;;;;;;4995942;28;20046;-83
2022/04/05 02:45:45;;;;;;;16.00;3.92;;;6.60;99.90;;;;;;5011481;28;20045;-86
2022/04/05 02:48:10;;;;;;;10.65;3.13;;;6.60;99.90;;;;;;4995577;28;20046;-86
2022/04/05 02:50:36;;;;;;;11.77;3.10;;;6.60;99.90;;;;;;5011363;28;20048;-86
2022/04/05 02:53:02;;;;;;;15.13;3.40;;;6.60;99.90;;;;;;5012789;28;20089;-86
2022/04/05 02:55:27;;;;;;;11.90;3.95;;;6.60;99.90;;;;;;5010582;28;20058;-86
2022/04/05 02:57:53;;;;;;;13.93;3.45;;;6.60;99.90;;;;;;5010625;28;20501;-87
2022/04/05 03:00:19;;;;;;;15.38;3.80;;;6.60;99.90;;;;;;4994470;28;20046;-86
2022/04/05 03:02:45;;;;;;;13.82;3.25;;;6.60;99.90;;;;;;5010121;28;20391;-86
2022/04/05 03:05:13;;;;;;;11.63;2.90;;;6.60;99.90;;;;;;4994701;28;20054;-86
2022/04/05 03:07:39;;;;;;;10.75;3.80;;;6.60;99.90;;;;;;4993597;28;20054;-87
2022/04/05 03:10:06;;;;;;;12.10;3.38;;;6.60;99.90;;;;;;4993635;28;20069;-85
2022/04/05 03:12:32;;;;;;;19.58;3.30;;;6.60;99.90;;;;;;4994202;28;20134;-87
2022/04/05 03:14:58;;;;;;;16.15;3.67;;;6.60;99.90;;;;;;4995102;28;20052;-86
2022/04/05 03:17:24;;;;;;;16.00;3.03;;;6.60;99.90;;;;;;4994299;28;20128;-84
2022/04/05 03:19:49;;;;;;;14.23;3.80;;;6.60;99.90;;;;;;4994291;28;20490;-85
2022/04/05 03:22:16;;;;;;;15.27;3.75;;;6.60;99.90;;;;;;5010905;28;20094;-85
2022/04/05 03:24:42;;;;;;;17.65;3.67;;;6.60;99.90;;;;;;4977947;28;20069;-85
2022/04/05 03:27:08;;;;;;;19.20;4.32;;;6.60;99.90;;;;;;4994618;28;20508;-86
2022/04/05 03:29:34;;;;;;;13.82;4.20;;;6.60;99.90;;;;;;5010619;28;20045;-86
2022/04/05 03:31:59;;;;;;;14.10;4.40;;;6.60;99.90;;;;;;5004994;28;20034;-85
2022/04/05 03:34:25;;;;;;;13.13;4.35;;;6.60;99.90;;;;;;5035395;28;20065;-82
2022/04/05 03:36:51;;;;;;;13.52;4.20;;;6.60;99.90;;;;;;5015111;28;20030;-86
2022/04/05 03:39:16;;;;;;;15.65;4.68;;;6.60;99.90;;;;;;5012907;28;20140;-86
2022/04/05 03:41:42;;;;;;;14.43;4.43;;;6.60;99.90;;;;;;5012120;28;20058;-85
2022/04/05 03:44:08;;;;;;;17.02;5.03;;;6.60;99.90;;;;;;4994444;28;20181;-85
2022/04/05 03:46:34;;;;;;;15.93;4.78;;;6.60;99.90;;;;;;5009608;28;20085;-85
2022/04/05 03:49:00;;;;;;;19.75;6.07;;;6.60;99.90;;;;;;5010724;28;20049;-86
2022/04/05 03:51:31;;;;;;;18.08;5.57;;;6.60;99.90;;;;;;5010109;28;20069;-85
2022/04/05 03:53:57;;;;;;;19.95;5.80;;;6.60;99.90;;;;;;5010704;28;20510;-86
2022/04/05 03:56:25;;;;;;;15.02;5.03;;;6.70;99.90;;;;;;4994101;28;20497;-85
2022/04/05 03:58:51;;;;;;;17.38;5.63;;;6.70;99.90;;;;;;5010555;28;20088;-85
2022/04/05 04:01:17;;;;;;;22.77;5.18;;;6.70;99.90;;;;;;5004805;28;20050;-86
2022/04/05 04:03:43;;;;;;;19.85;5.40;;;6.60;99.90;;;;;;4995153;28;20050;-85
2022/04/05 04:06:08;;;;;;;19.60;4.55;;;6.60;99.90;;;;;;5010470;28;20061;-86
2022/04/05 04:08:35;;;;;;;16.80;5.00;;;6.60;99.90;;;;;;5004742;28;20084;-86
2022/04/05 04:11:01;;;;;;;18.98;4.43;;;6.60;99.90;;;;;;5014668;28;20099;-86
2022/04/05 04:13:27;;;;;;;16.42;4.85;;;6.50;99.90;;;;;;5034116;28;20050;-85
2022/04/05 04:15:53;;;;;;;19.58;4.45;;;6.50;99.90;;;;;;5029993;28;20114;-85
2022/04/05 04:18:18;;;;;;;17.90;4.30;;;6.50;99.90;;;;;;5040120;28;20049;-87
2022/04/05 04:20:44;;;;;;;18.40;3.90;;;6.50;99.90;;;;;;5034779;28;20068;-86
2022/04/05 04:23:10;;;;;;;20.33;3.78;;;6.50;99.90;;;;;;5037173;28;20133;-87
2022/04/05 04:25:37;;;;;;;19.05;3.63;;;6.40;99.90;;;;;;5038256;28;20049;-87
2022/04/05 04:28:06;;;;;;;18.48;3.90;;;6.60;99.90;;;;;;5017731;28;20088;-86
2022/04/05 04:30:33;;;;;;;18.20;4.00;;;6.60;99.90;;;;;;5016833;28;20132;-84
2022/04/05 04:32:58;;;;;;;19.48;3.40;;;7.40;99.90;;;;;;5017458;28;20057;-86
2022/04/05 04:35:24;;;;;;;19.67;3.60;;;6.40;99.90;;;;;;5017290;28;20053;-86
2022/04/05 04:37:50;;;;;;;19.08;3.58;;;6.40;99.90;;;;;;5015647;28;20050;-85
2022/04/05 04:40:16;;;;;;;13.98;3.15;;;6.40;99.90;;;;;;5016859;28;20060;-86
2022/04/05 04:42:41;;;;;;;23.77;3.22;;;6.30;99.90;;;;;;5031814;28;20056;-84
2022/04/05 04:45:09;;;;;;;24.73;4.05;;;6.30;99.90;;;;;;5016490;28;20401;-87
2022/04/05 04:47:35;;;;;;;21.42;4.20;;;6.30;99.90;;;;;;5032888;28;20061;-83
2022/04/05 04:50:00;;;;;;;22.38;4.03;;;6.30;99.90;;;;;;5033253;28;20041;-85
2022/04/05 04:52:26;;;;;;;21.17;3.90;;;6.40;99.90;;;;;;5032195;28;20050;-87
2022/04/05 04:54:52;;;;;;;22.63;3.78;;;6.30;99.90;;;;;;5031799;28;20500;-87
2022/04/05 04:57:18;;;;;;;21.75;4.13;;;6.40;99.90;;;;;;5015857;28;20436;-86
2022/04/05 04:59:43;;;;;;;14.32;3.20;;;6.30;99.90;;;;;;5031468;28;20068;-87
2022/04/05 05:02:09;;;;;;;23.00;3.55;;;6.40;99.90;;;;;;5032692;28;20140;-87
2022/04/05 05:04:35;;;;;;;19.27;3.83;;;6.40;99.90;;;;;;4999946;28;20096;-83
2022/04/05 05:07:00;;;;;;;23.98;4.13;;;6.40;99.90;;;;;;5033362;28;20057;-86
2022/04/05 05:09:26;;;;;;;20.52;3.95;;;6.40;99.90;;;;;;5014790;28;20061;-86
2022/04/05 05:11:52;;;;;;;16.50;3.55;;;6.40;99.90;;;;;;5032255;28;20052;-86
2022/04/05 05:14:17;;;;;;;20.17;4.00;;;6.40;99.90;;;;;;5015662;28;20084;-85
2022/04/05 05:16:43;;;;;;;14.82;3.97;;;6.40;99.90;;;;;;5031242;28;20486;-84
2022/04/05 05:19:09;;;;;;;18.77;3.97;;;6.50;99.90;;;;;;5032078;28;20192;-85
2022/04/05 05:21:35;;;;;;;25.27;3.67;;;6.40;99.90;;;;;;5031556;28;20069;-86
2022/04/05 05:24:01;;;;;;;20.80;4.10;;;6.40;99.90;;;;;;5031094;28;20575;-86
2022/04/05 05:26:26;;;;;;;16.60;3.67;;;6.50;99.90;;;;;;5032780;28;20088;-85
2022/04/05 05:28:52;;;;;;;17.65;3.85;;;6.50;99.90;;;;;;5013954;28;20095;-86
2022/04/05 05:31:18;;;;;;;15.48;4.25;;;6.50;99.90;;;;;;5015705;28;20107;-86
2022/04/05 05:33:43;;;;;;;16.55;3.55;;;6.70;99.90;;;;;;5015324;28;20060;-86
2022/04/05 05:36:09;;;;;;;21.38;3.47;;;6.50;99.90;;;;;;5015223;28;20049;-86
2022/04/05 05:38:35;;;;;;;17.42;3.75;;;6.50;99.90;;;;;;5016090;28;20052;-86
2022/04/05 05:41:00;;;;;;;16.00;4.03;;;7.10;99.90;;;;;;5031905;28;20084;-86
2022/04/05 05:43:26;;;;;;;16.20;4.10;;;6.60;99.90;;;;;;5031260;28;20057;-86
2022/04/05 05:45:52;;;;;;;19.55;4.93;;;6.60;99.90;;;;;;5031640;28;20042;-86
2022/04/05 05:48:18;;;;;;;16.85;4.50;;;6.60;99.90;;;;;;5032668;28;20045;-85
2022/04/05 05:50:43;;;;;;;14.40;4.45;;;6.70;99.90;;;;;;5042887;28;20033;-82
2022/04/05 05:53:09;;;;;;;20.98;5.35;;;6.70;99.90;;;;;;5056342;28;20064;-83
2022/04/05 05:55:35;;;;;;;16.90;4.63;;;6.70;99.90;;;;;;5034437;28;20148;-86
2022/04/05 05:58:03;;;;;;;19.05;5.30;;;6.70;99.90;;;;;;5000347;28;20056;-85
2022/04/05 06:00:28;;;;;;;19.05;5.35;;;6.80;99.90;;;;;;5015380;28;20143;-86
2022/04/05 06:03:01;;;;;;;18.63;5.55;;;6.80;99.90;;;;;;5014447;28;20076;-86
2022/04/05 06:05:27;;;;;;;17.75;5.28;;;6.80;99.90;;;;;;4999160;28;20683;-86
2022/04/05 06:07:53;;;;;;;16.60;5.95;;;6.80;99.90;;;;;;5030354;28;20052;-85
2022/04/05 06:10:19;;;;;;;17.17;4.85;;;6.80;99.90;;;;;;5014866;28;20061;-86
2022/04/05 06:12:45;;;;;;;16.85;5.95;;;6.80;99.90;;;;;;5014484;28;20085;-83
2022/04/05 06:15:12;;;;;;;14.13;5.20;;;6.80;99.90;;;;;;5031412;28;20097;-85
2022/04/05 06:17:40;;;;;;;19.05;5.93;;;6.80;99.90;;;;;;4998052;28;20041;-86
2022/04/05 06:20:06;;;;;;;17.42;5.75;;;6.80;99.90;;;;;;5013560;28;20046;-86
2022/04/05 06:22:46;;;;;;;16.45;4.95;;;6.80;99.90;;;;;;5013895;28;20057;-86
2022/04/05 06:25:12;;;;;;;17.77;5.78;;;6.80;99.90;;;;;;5030734;28;20050;-86
2022/04/05 06:27:38;;;;;;;10.70;4.50;;;6.80;99.90;;;;;;5014015;28;20057;-86
2022/04/05 06:30:05;;;;;;;14.80;5.43;;;6.80;99.90;;;;;;5013423;28;20136;-84
2022/04/05 06:32:30;;;;;;;16.13;5.60;;;6.80;99.90;;;;;;5013882;28;20060;-86
2022/04/05 06:34:56;;;;;;;18.80;5.50;;;6.80;99.90;;;;;;5029348;28;20049;-86
2022/04/05 06:37:22;;;;;;;13.27;5.28;;;6.80;99.90;;;;;;5029893;28;20088;-86
2022/04/05 06:39:49;;;;;;;9.98;4.93;;;6.80;99.90;;;;;;5013310;28;20045;-82
2022/04/05 06:42:15;;;;;;;14.48;5.70;;;6.90;99.90;;;;;;5029465;28;20085;-85
2022/04/05 06:44:41;;;;;;;14.40;4.53;;;6.90;99.90;;;;;;4997096;28;20088;-86
2022/04/05 06:47:08;;;;;;;14.23;4.78;;;6.90;99.90;;;;;;4996634;28;20053;-85
2022/04/05 06:49:34;;;;;;;14.95;4.68;;;7.00;99.90;;;;;;5030102;28;20071;-84
2022/04/05 06:52:00;;;;;;;13.50;5.30;;;7.10;99.90;;;;;;5013178;28;20497;-87
2022/04/05 06:54:25;;;;;;;14.07;4.22;;;7.10;99.90;;;;;;5030115;28;20524;-86
2022/04/05 06:56:51;;;;;;;13.15;4.20;;;7.10;99.90;;;;;;5031299;28;20047;-86
2022/04/05 06:59:17;;;;;;;12.23;4.15;;;7.10;99.90;;;;;;5013730;28;20046;-85
2022/04/05 07:01:42;;;;;;;11.55;4.13;;;7.30;99.90;;;;;;5013740;28;20532;-85
2022/04/05 07:04:08;;;;;;;14.30;4.32;;;8.10;99.90;;;;;;5029248;28;20057;-85
2022/04/05 07:06:35;;;;;;;13.63;4.22;;;7.70;99.90;;;;;;5030054;28;20497;-86
2022/04/05 07:09:01;;;;;;;11.52;3.60;;;7.40;99.90;;;;;;5029595;28;20608;-85
2022/04/05 07:11:27;;;;;;;12.15;4.15;;;7.50;99.90;;;;;;5029864;28;20118;-85
2022/04/05 07:13:53;;;;;;;10.57;4.10;;;7.60;99.90;;;;;;5013553;28;20065;-84
2022/04/05 07:16:19;;;;;;;10.68;3.75;;;7.70;99.90;;;;;;5030765;28;20053;-83
2022/04/05 07:18:44;;;;;;;9.02;3.85;;;7.60;99.90;;;;;;5053416;28;20046;-84
2022/04/05 07:21:11;;;;;;;11.93;3.78;;;7.70;99.90;;;;;;5027916;28;20056;-84
2022/04/05 07:23:37;;;;;;;11.50;3.78;;;7.70;99.90;;;;;;5016641;28;20057;-83
2022/04/05 07:26:03;;;;;;;9.77;3.05;;;7.60;99.90;;;;;;5047385;28;20053;-82
2022/04/05 07:28:29;;;;;;;11.20;2.78;;;7.60;99.90;;;;;;5016393;28;20045;-83
2022/04/05 07:30:54;;;;;;;11.27;2.90;;;7.70;99.90;;;;;;5029368;28;20056;-83
2022/04/05 07:33:20;;;;;;;6.03;2.33;;;7.80;99.90;;;;;;5030515;28;20144;-84
2022/04/05 07:35:46;;;;;;;9.98;2.70;;;7.70;99.90;;;;;;5015126;28;20123;-83
2022/04/05 07:38:12;;;;;;;7.53;2.55;;;7.60;99.90;;;;;;5030866;28;20053;-85
2022/04/05 07:40:48;;;;;;;9.27;3.00;;;7.70;99.90;;;;;;5014191;28;20187;-83
2022/04/05 07:43:17;;;;;;;9.20;2.40;;;7.80;99.90;;;;;;5035127;28;20063;-83
2022/04/05 07:45:44;;;;;;;10.88;2.78;;;7.80;99.90;;;;;;5025615;28;20111;-83
2022/04/05 07:48:10;;;;;;;8.98;2.47;;;7.70;99.90;;;;;;5012969;28;20072;-83
2022/04/05 07:50:36;;;;;;;6.75;2.58;;;7.70;99.90;;;;;;5042008;28;20057;-83
2022/04/05 07:53:02;;;;;;;11.70;3.03;;;7.70;99.90;;;;;;5026688;28;20148;-83
2022/04/05 07:55:29;;;;;;;8.50;2.90;;;7.70;99.90;;;;;;5031690;28;20072;-83
2022/04/05 07:57:55;;;;;;;10.40;3.10;;;7.70;99.90;;;;;;5030493;28;20037;-82
2022/04/05 08:00:23;;;;;;;10.85;3.80;;;7.70;99.90;;;;;;5044221;28;20535;-83
2022/04/05 08:02:50;;;;;;;9.40;3.05;;;7.70;99.90;;;;;;5025742;28;20067;-85
2022/04/05 08:05:16;;;;;;;10.45;3.00;;;7.80;99.90;;;;;;5038416;28;20126;-84
2022/04/05 08:07:41;;;;;;;8.10;2.80;;;7.70;99.90;;;;;;5036326;28;20053;-85
2022/04/05 08:10:08;;;;;;;6.68;3.05;;;7.70;99.90;;;;;;5028359;28;20060;-80
2022/04/05 08:12:42;;;;;;;7.13;2.72;;;7.70;99.90;;;;;;5020859;28;20079;-80
2022/04/05 08:15:09;;;;;;;8.05;2.88;;;7.80;99.90;;;;;;5034985;28;20054;-81
2022/04/05 08:17:34;;;;;;;9.77;2.80;;;7.70;99.90;;;;;;5016910;28;20144;-80
2022/04/05 08:20:01;;;;;;;11.38;2.97;;;7.70;99.90;;;;;;5027734;28;20049;-79
2022/04/05 08:22:27;;;;;;;8.70;2.92;;;7.70;99.90;;;;;;5030341;28;20050;-82
2022/04/05 08:24:52;;;;;;;10.05;2.80;;;7.90;99.90;;;;;;5028933;28;20070;-81
2022/04/05 08:27:18;;;;;;;11.70;3.20;;;8.00;99.90;;;;;;5024518;28;20511;-87
2022/04/05 08:29:43;;;;;;;8.50;2.97;;;8.00;99.90;;;;;;5005218;28;20940;-88
2022/04/05 08:32:09;;;;;;;7.82;2.85;;;7.90;99.90;;;;;;5019347;28;20115;-86
2022/04/05 08:34:38;;;;;;;8.15;2.58;;;8.10;99.90;;;;;;5028513;28;20060;-85
2022/04/05 08:37:04;;;;;;;7.05;2.90;;;8.40;99.90;;;;;;5032861;28;20041;-85
2022/04/05 08:39:29;;;;;;;6.45;2.58;;;8.20;99.90;;;;;;5000127;28;20063;-85
2022/04/05 08:41:56;;;;;;;8.88;2.83;;;8.20;99.90;;;;;;5011490;28;20057;-85
2022/04/05 08:44:21;;;;;;;6.28;2.40;;;8.20;99.90;;;;;;5015387;28;20627;-86
2022/04/05 08:46:47;;;;;;;8.57;2.22;;;8.20;99.90;;;;;;5015161;28;20061;-85
2022/04/05 08:49:13;;;;;;;7.22;2.25;;;8.20;99.90;;;;;;4998405;28;20049;-85
2022/04/05 08:51:39;;;;;;;9.55;2.40;;;8.20;99.90;;;;;;5032857;28;20053;-85
2022/04/05 08:54:04;;;;;;;10.80;2.42;;;8.20;99.90;;;;;;5029143;28;20072;-84
2022/04/05 08:56:30;;;;;;;6.63;2.30;;;8.20;99.90;;;;;;5015898;28;20077;-87
2022/04/05 08:58:56;;;;;;;5.53;2.30;;;8.30;99.90;;;;;;5032754;28;20049;-85
2022/04/05 09:01:22;;;;;;;7.30;2.40;;;8.20;99.90;;;;;;5031963;28;20041;-86
2022/04/05 09:03:48;;;;;;;6.75;2.22;;;8.10;99.90;;;;;;4994022;28;20124;-85
2022/04/05 09:06:43;;;;;;;7.18;2.40;;;8.30;99.90;;;;;;5031911;28;20429;-84
2022/04/05 09:09:13;;;;;;;5.50;2.47;;;8.50;99.90;;;;;;4992525;28;20046;-84
2022/04/05 09:11:47;;;;;;;5.65;2.40;;;8.60;99.90;;;;;;5030915;28;20053;-85
2022/04/05 09:14:13;;;;;;;8.40;2.20;;;8.80;99.90;;;;;;5015792;28;20588;-85
2022/04/05 09:16:39;;;;;;;5.38;2.30;;;8.80;99.90;;;;;;4998888;28;20038;-84
2022/04/05 09:19:14;;;;;;;5.97;2.20;;;8.80;99.90;;;;;;5015930;28;20459;-83
2022/04/05 09:21:53;;;;;;;5.88;2.08;;;8.70;99.90;;;;;;5016900;28;20076;-83
2022/04/05 09:24:19;;;;;;;5.53;1.88;;;8.80;99.90;;;;;;5015727;28;20107;-83
2022/04/05 09:26:45;;;;;;;4.00;1.60;;;8.90;99.90;;;;;;5015490;28;20436;-84
2022/04/05 09:29:11;;;;;;;5.85;1.92;;;9.00;99.90;;;;;;5010589;28;20077;-85
2022/04/05 09:31:48;;;;;;;7.10;1.80;;;9.10;99.90;;;;;;4998733;28;20497;-85
2022/04/05 09:34:19;;;;;;;7.05;1.90;;;9.10;99.90;;;;;;5032814;28;20073;-86
2022/04/05 09:36:48;;;;;;;5.05;1.75;;;9.00;99.90;;;;;;5016716;28;20045;-88
2022/04/05 09:39:24;;;;;;;5.15;1.70;;;8.90;99.90;;;;;;5013900;28;20060;-88
2022/04/05 09:41:52;;;;;;;5.43;1.85;;;8.90;99.90;;;;;;5017657;28;20045;-88
2022/04/05 09:44:34;;;;;;;4.65;2.20;;;8.90;99.90;;;;;;5033451;28;20070;-87
2022/04/05 09:47:08;;;;;;;4.63;1.58;;;8.90;99.90;;;;;;5016609;28;20432;-85
2022/04/05 09:49:40;;;;;;;4.25;1.90;;;8.80;99.90;;;;;;4995342;28;20033;-85
2022/04/05 09:52:29;;;;;;;4.53;2.10;;;8.80;99.90;;;;;;5033794;28;20049;-90
2022/04/05 09:54:55;;;;;;;5.32;1.60;;;8.90;99.90;;;;;;5034327;28;20037;-89
2022/04/05 09:57:33;;;;;;;5.78;1.77;;;8.90;99.90;;;;;;5019861;28;20061;-90
2022/04/05 10:00:25;;;;;;;3.25;1.65;;;8.90;99.90;;;;;;5015828;28;20046;-89
2022/04/05 10:03:00;;;;;;;4.47;1.52;;;9.00;99.90;;;;;;5010256;28;20469;-88
2022/04/05 10:05:27;;;;;;;3.60;1.60;;;8.90;99.90;;;;;;5014354;28;20054;-90
2022/04/05 10:07:53;;;;;;;5.30;2.00;;;9.00;99.90;;;;;;4999700;28;20085;-87
2022/04/05 10:10:19;;;;;;;6.97;1.95;;;9.10;99.90;;;;;;4996072;28;20140;-89
2022/04/05 10:12:47;;;;;;;3.95;1.83;;;9.10;99.90;;;;;;5012440;28;20053;-90
2022/04/05 10:15:12;;;;;;;4.65;1.88;;;9.00;99.90;;;;;;4979978;28;20132;-89
2022/04/05 10:17:43;;;;;;;5.57;1.80;;;9.10;99.90;;;;;;5016345;28;20141;-87
2022/04/05 10:20:09;;;;;;;2.97;1.80;;;9.00;99.90;;;;;;5037459;28;20029;-82
2022/04/05 10:22:35;;;;;;;3.17;1.88;;;9.00;99.90;;;;;;5038864;28;20098;-84
2022/04/05 10:25:01;;;;;;;4.07;1.75;;;9.10;99.90;;;;;;5008325;28;20053;-87
2022/04/05 10:27:26;;;;;;;3.38;2.17;;;9.10;99.90;;;;;;5008057;28;20050;-84
2022/04/05 10:30:21;;;;;;;2.92;2.17;;;9.10;99.90;;;;;;5023945;28;20102;-86
2022/04/05 10:33:04;;;;;;;3.58;1.80;;;9.10;99.90;;;;;;5053149;28;20053;-87
2022/04/05 10:35:30;;;;;;;2.38;1.63;;;9.20;99.90;;;;;;5025486;28;20041;-87
2022/04/05 10:38:13;;;;;;;3.10;1.80;;;9.20;99.90;;;;;;5014449;28;20485;-88
2022/04/05 10:40:39;;;;;;;2.53;2.00;;;9.30;99.90;;;;;;5030150;28;20559;-87
2022/04/05 10:43:18;;;;;;;1.73;1.60;;;9.30;99.90;;;;;;5015906;28;20049;-89
2022/04/05 10:45:44;;;;;;;2.35;1.80;;;9.30;99.90;;;;;;4996725;28;20048;-88
2022/04/05 10:48:20;;;;;;;3.90;1.98;;;9.40;99.90;;;;;;5031934;28;20076;-89
2022/04/05 10:50:47;;;;;;;3.75;1.90;;;9.40;99.90;;;;;;5028576;28;20068;-87
2022/04/05 10:53:15;;;;;;;2.53;1.70;;;9.50;99.90;;;;;;5031035;28;20489;-89
2022/04/05 10:56:02;;;;;;;3.38;1.90;;;9.50;99.90;;;;;;4995791;28;20057;-89
2022/04/05 10:58:29;;;;;;;2.17;1.70;;;9.60;99.90;;;;;;5011065;28;20053;-89
2022/04/05 11:01:14;;;;;;;2.03;1.65;;;9.70;99.90;;;;;;5008629;28;20076;-87
2022/04/05 11:03:39;;;;;;;2.47;1.98;;;9.70;99.90;;;;;;5030935;28;20053;-89
2022/04/05 11:06:05;;;;;;;1.77;1.67;;;9.70;99.90;;;;;;5009499;28;20057;-90
2022/04/05 11:08:31;;;;;;;2.55;1.63;;;9.60;99.90;;;;;;5012506;28;20046;-89
2022/04/05 11:11:01;;;;;;;1.80;1.70;;;9.50;99.90;;;;;;5031594;28;20049;-89
2022/04/05 11:13:42;;;;;;;2.63;1.77;;;9.60;99.90;;;;;;5012339;28;20408;-88
2022/04/05 11:16:09;;;;;;;2.17;1.98;;;9.70;99.90;;;;;;5012950;28;20118;-88
2022/04/05 11:18:35;;;;;;;2.45;1.90;;;9.90;99.90;;;;;;5030868;28;20460;-90
2022/04/05 11:21:05;;;;;;;1.88;1.70;;;10.10;99.90;;;;;;4998738;28;20041;-90
2022/04/05 11:23:40;;;;;;;1.73;1.60;;;10.10;99.90;;;;;;5028103;28;20088;-90
2022/04/05 11:26:23;;;;;;;1.80;1.70;;;10.20;99.90;;;;;;5011800;28;20054;-90
2022/04/05 11:28:49;;;;;;;2.97;2.10;;;10.10;99.90;;;;;;4995891;28;20057;-90
2022/04/05 11:31:35;;;;;;;1.85;1.75;;;10.10;99.90;;;;;;4996980;28;20050;-88
2022/04/05 11:34:03;;;;;;;1.92;1.83;;;10.30;99.90;;;;;;5011525;28;20054;-88
2022/04/05 11:36:28;;;;;;;2.28;1.73;;;10.30;99.90;;;;;;4994997;28;20486;-89
2022/04/05 11:38:57;;;;;;;1.50;1.40;;;10.50;99.90;;;;;;4995246;28;20057;-88
2022/04/05 11:41:23;;;;;;;1.85;1.75;;;10.30;99.90;;;;;;4995180;28;20393;-87
2022/04/05 11:43:53;;;;;;;2.35;2.15;;;10.50;99.90;;;;;;5011584;28;20050;-85
2022/04/05 11:46:29;;;;;;;1.70;1.60;;;10.40;99.90;;;;;;4995749;28;20041;-85
2022/04/05 11:48:59;;;;;;;1.88;1.75;;;10.30;99.90;;;;;;4994791;28;20486;-85
2022/04/05 11:51:30;;;;;;;1.83;1.73;;;10.10;99.90;;;;;;4994707;28;20100;-85
2022/04/05 11:54:07;;;;;;;2.05;1.90;;;10.00;99.90;;;;;;4995273;28;20068;-85
2022/04/05 11:56:34;;;;;;;1.83;1.73;;;10.00;99.90;;;;;;4995177;28;20068;-84
2022/04/05 11:59:00;;;;;;;2.10;1.90;;;9.90;99.90;;;;;;4994801;28;20054;-86
2022/04/05 12:01:28;;;;;;;1.90;1.80;;;9.90;99.90;;;;;;4994476;28;20473;-83
2022/04/05 12:03:58;;;;;;;2.85;1.90;;;9.90;99.90;;;;;;5018213;28;20052;-85
2022/04/05 12:06:30;;;;;;;2.05;1.95;;;9.60;99.90;;;;;;5031292;28;20612;-83
2022/04/05 12:09:01;;;;;;;2.47;2.28;;;9.70;99.90;;;;;;5029687;28;20148;-84
2022/04/05 12:11:27;;;;;;;3.10;2.30;;;9.70;99.90;;;;;;4988989;28;20053;-86
2022/04/05 12:14:01;;;;;;;3.45;3.15;;;9.80;99.90;;;;;;4990351;28;20048;-86
2022/04/05 12:16:29;;;;;;;8.25;5.70;;;9.90;99.90;;;;;;5013815;28;20077;-85
2022/04/05 12:18:55;;;;;;;5.30;4.40;;;9.90;99.90;;;;;;5013629;28;20045;-86
2022/04/05 12:21:21;;;;;;;6.25;4.93;;;9.90;99.90;;;;;;4978956;28;20449;-86
2022/04/05 12:23:47;;;;;;;4.95;4.45;;;10.00;99.90;;;;;;5013211;28;20045;-85
2022/04/05 12:26:23;;;;;;;4.63;3.85;;;10.10;99.90;;;;;;5029195;28;20103;-86
2022/04/05 12:28:50;;;;;;;2.45;2.25;;;10.30;99.90;;;;;;5014185;28;20048;-86
2022/04/05 12:31:17;;;;;;;2.50;2.30;;;10.40;99.90;;;;;;5030581;28;20089;-86
2022/04/05 12:33:56;;;;;;;2.90;2.70;;;10.60;99.90;;;;;;5030032;28;20050;-87
2022/04/05 12:36:21;;;;;;;2.60;2.40;;;10.60;99.90;;;;;;5014362;28;20086;-85
2022/04/05 12:38:48;;;;;;;2.88;2.58;;;10.60;99.90;;;;;;5011727;28;20108;-86
2022/04/05 12:41:17;;;;;;;2.63;2.42;;;10.70;99.90;;;;;;5016941;28;20124;-84
2022/04/05 12:43:43;;;;;;;2.70;2.50;;;10.60;99.90;;;;;;5013140;28;20050;-86
2022/04/05 12:46:13;;;;;;;3.13;2.88;;;10.60;99.90;;;;;;4998177;28;20057;-85
2022/04/05 12:48:39;;;;;;;4.15;3.30;;;10.60;99.90;;;;;;4986985;28;20069;-84
2022/04/05 12:51:05;;;;;;;3.30;2.90;;;10.60;99.90;;;;;;5037983;28;20064;-83
2022/04/05 12:53:35;;;;;;;3.30;3.00;;;10.70;99.90;;;;;;5035547;28;20053;-84